Meteo – Situazione

Stazione Meteo G.A.P.
Ultimo aggiornamento 2022-10-06 21:13:40 Z

Vento da (gradi)
Velocità del vento (Km/h)
Temperatura (C°)
Pressione Barometrica (hPa)
Umidità (%)
Visibilità (mt)
Copertura Nuvolosa (%)
Pioggia nelle ultime 3 ore (mm)
Neve nelle ultime 3 ore (cm)

METAR Aeroporti Vicini

Pratica di Mare

LIRE 062055Z VRB02KT CAVOK 18/16 Q1026

Roma Fiumicino

LIRF 062050Z 11003KT CAVOK 18/15 Q1026 NOSIG

Roma Ciampino

LIRA 062050Z 20005KT CAVOK 19/15 Q1026

Latina

LIRL 061755Z 06003KT 9999 FEW018 SCT070 21/19 Q1025

Guidonia

LIRG 061755Z 06003KT CAVOK 21/15 Q1025

Roma Urbe

LIRU 061650Z 22004KT 190V250 CAVOK 23/17 Q1025

Comments are closed.